Terminal Aerodrome Forecast
Issued by NWS

Home | Current Version | Previous Version | Text Only | Print | Product List | Glossary On
Versions: 1 2 3 4 5 6 7 8 9 10 11 12 13
000
FTUS43 KBIS 052336
TAFJMS
TAF
KJMS 052336Z 0600/0624 18019G26KT P6SM SKC
     FM060100 14012KT P6SM SCT060
     FM060300 13011KT P6SM BKN045
     FM060800 12011KT 5SM BR VCSH BKN015 OVC025
     FM061200 13015KT 4SM -SHRA BR SCT004 OVC010
     FM061600 14015G25KT 4SM -SHRA OVC014
     FM062000 15015G25KT P6SM BKN035=

USA.gov is the U.S. government's official web portal to all federal, state and local government web resources and services.